ADDS METAR Data INFO
IDs: Format: Raw Decoded Include TAF

Data at: 0735 UTC 18 Oct 2017

KILM 180653Z 04004KT 10SM CLR 09/07 A3028 RMK AO2 SLP254 T00890067 $
KILM 180553Z 05004KT 10SM CLR 08/07 A3029 RMK AO2 SLP255 T00830067 10117 20083 58005 $
KILM 180453Z 03005KT 10SM CLR 09/07 A3029 RMK AO2 SLP257 T00890067 401720089 $
KILM 180353Z 03005KT 10SM CLR 09/07 A3030 RMK AO2 SLP260 T00940067 $
KILM 180253Z AUTO 02006KT 10SM CLR 10/07 A3030 RMK AO2 SLP260 T01000067 50007 $
KILM 180153Z AUTO 05007KT 10SM CLR 11/07 A3030 RMK AO2 SLP261 T01060072 $
KILM 180053Z AUTO 03004KT 10SM CLR 10/08 A3029 RMK AO2 SLP255 T01000083 $
KILM 172353Z AUTO 07003KT 10SM CLR 12/08 A3028 RMK AO2 SLP253 T01170078 10172 20106 53009 $
KILM 172253Z AUTO 04004KT 10SM CLR 13/07 A3027 RMK AO2 SLP249 T01330072 $
KILM 172153Z AUTO 06007KT 10SM CLR 17/07 A3026 RMK AO2 SLP245 T01670067 $
KILM 172053Z AUTO 05010KT 10SM CLR 17/07 A3025 RMK AO2 SLP244 T01670067 $
KILM 171953Z AUTO 01012KT 10SM 17/07 A3026 RMK AO2 SLP247 T01670072 $
KILM 171853Z AUTO 03012KT 10SM CLR 17/08 A3026 RMK AO2 SLP247 T01720083
KILM 171753Z AUTO 01013G22KT 10SM CLR 17/08 A3027 RMK AO2 SLP249 T01720083 10172 20106 58011
KILM 171653Z AUTO 02012KT 10SM CLR 17/08 A3029 RMK AO2 SLP255 T01670078
KILM 171553Z AUTO 02011G19KT 10SM CLR 15/07 A3031 RMK AO2 SLP261 T01500072
KILM 171453Z AUTO 02012G19KT 10SM CLR 14/06 A3030 RMK AO2 SLP260 T01390061 51019
KILM 171353Z AUTO 02010KT 10SM CLR 14/06 A3029 RMK AO2 SLP257 T01440061
KILM 171253Z AUTO 01011KT 10SM CLR 11/06 A3027 RMK AO2 SLP251 T01110061
KILM 171153Z AUTO 36011KT 10SM CLR 11/06 A3024 RMK AO2 SLP241 70026 T01060061 10139 20100 52021
KILM 171053Z AUTO 01007KT 10SM CLR 10/06 A3022 RMK AO2 SLP233 T01000061
KILM 170953Z 01010KT 10SM CLR 11/06 A3020 RMK AO2 SLP227 T01060061
KILM 170853Z AUTO 01008KT 10SM CLR 12/06 A3018 RMK AO2 SLP219 T01170061 53005
KILM 170753Z AUTO 02009KT 10SM CLR 12/07 A3016 RMK AO2 SLP214 T01220067
KILM 170653Z AUTO 02010KT 10SM CLR 13/07 A3017 RMK AO2 SLP216 T01330072
KILM 170553Z AUTO 02010KT 10SM SCT070 14/08 A3017 RMK AO2 SLP214 T01390078 10161 20139 51004
KILM 170453Z AUTO 02012KT 10SM OVC070 15/09 A3016 RMK AO2 SLP212 T01500094 403000150
KILM 170353Z AUTO 02014KT 10SM BKN049 OVC060 16/11 A3016 RMK AO2 SLP213 T01560106
KILM 170253Z AUTO 01012G19KT 10SM OVC047 16/11 A3015 RMK AO2 SLP210 T01610106 51020
KILM 170153Z AUTO 02012KT 10SM OVC043 16/11 A3014 RMK AO2 SLP205 T01560106
KILM 170053Z AUTO 02015KT 10SM OVC039 16/11 A3012 RMK AO2 SLP198 T01610111
KILM 162353Z AUTO 01013KT 10SM OVC032 16/12 A3010 RMK AO2 SLP191 60026 T01560117 10294 20150 51030
KILM 162310Z AUTO 01011G18KT 10SM BKN030 OVC042 15/12 A3007 RMK AO2 T01500117
KILM 162253Z AUTO 36013G19KT 10SM OVC029 15/12 A3007 RMK AO2 SLP183 T01500117
KILM 162205Z AUTO 01017G25KT 10SM SCT011 OVC024 15/12 A3005 RMK AO2 T01500122
KILM 162153Z 01017G25KT 10SM BKN010 OVC023 16/13 A3004 RMK AO2 PK WND 36027/2111 RAB33E43 SLP173 P0000 T01560128
KILM 162053Z 35016G23KT 10SM OVC010 17/16 A3001 RMK AO2 PK WND 01028/2013 SLP160 60026 T01720156 53020
KILM 162037Z 36016G27KT 10SM BKN010 OVC100 18/16 A3000 RMK AO2 PK WND 01028/2013 LTG DSNT E AND SE T01780161
KILM 162016Z 01017G28KT 10SM SCT013 BKN110 18/16 A2997 RMK AO2 PK WND 01028/2013 LTG DSNT E AND SE T01830161
KILM 161953Z 36015G23KT 10SM OVC014 21/18 A2997 RMK AO2 PK WND 32026/1854 WSHFT 1846 LTG DSNT E AND SE RAB1854E21 SLP147 P0026 T02060183
KILM 161939Z 35011KT 10SM BKN014 OVC019 21/19 A2997 RMK AO2 PK WND 32026/1854 WSHFT 1846 LTG DSNT E RAB1854E21 P0026 T02110194